Time;durP1;ratioP1;P1;durP2;ratioP2;P2;SDS_P1;SDS_P2;PMS_P1;PMS_P2;Temp;Humidity;BMP_temperature;BMP_pressure;BME280_temperature;BME280_humidity;BME280_pressure;Samples;Min_cycle;Max_cycle;Signal;HPM_P1;HPM_P2
2022/07/26 00:01:37;;;;;;;14.90;9.88;;;;;;;27.17;100.00;100685.84;4958943;29;20049;-73
2022/07/26 00:04:22;;;;;;;14.60;9.98;;;;;;;27.37;100.00;100670.72;4958283;28;20027;-71
2022/07/26 00:07:08;;;;;;;14.15;9.85;;;;;;;27.00;100.00;100675.69;4958546;29;20046;-72
2022/07/26 00:09:54;;;;;;;11.98;10.07;;;;;;;27.02;100.00;100667.50;4958421;29;20023;-72
2022/07/26 00:12:40;;;;;;;14.55;10.23;;;;;;;27.02;100.00;100670.19;4945703;29;20027;-73
2022/07/26 00:15:26;;;;;;;11.55;10.10;;;;;;;26.82;100.00;100684.50;4958345;28;20046;-73
2022/07/26 00:18:13;;;;;;;13.80;10.25;;;;;;;26.76;100.00;100680.47;4958638;29;20023;-72
2022/07/26 00:20:59;;;;;;;12.00;10.30;;;;;;;26.70;100.00;100680.16;4958071;29;20473;-73
2022/07/26 00:23:45;;;;;;;13.65;10.15;;;;;;;26.43;100.00;100675.22;4957728;28;20125;-73
2022/07/26 00:26:31;;;;;;;14.07;10.10;;;;;;;26.75;100.00;100676.09;4958640;29;20473;-73
2022/07/26 00:29:17;;;;;;;14.68;11.30;;;;;;;26.50;100.00;100667.50;4958298;29;20469;-73
2022/07/26 00:32:03;;;;;;;11.90;10.35;;;;;;;26.40;100.00;100671.97;4958447;29;20477;-72
2022/07/26 00:34:50;;;;;;;13.27;10.32;;;;;;;26.32;100.00;100669.91;4944705;29;20053;-72
2022/07/26 00:37:36;;;;;;;11.82;10.60;;;;;;;25.91;100.00;100667.06;4958170;29;20070;-74
2022/07/26 00:40:22;;;;;;;12.50;11.18;;;;;;;26.30;100.00;100671.00;4957749;29;20439;-74
2022/07/26 00:43:08;;;;;;;12.73;11.32;;;;;;;26.07;100.00;100672.03;4958697;29;20042;-73
2022/07/26 00:45:53;;;;;;;12.18;10.55;;;;;;;26.05;100.00;100669.50;4958040;29;20034;-72
2022/07/26 00:48:39;;;;;;;11.70;10.20;;;;;;;26.12;100.00;100664.47;4944297;29;20031;-72
2022/07/26 00:51:25;;;;;;;14.50;11.00;;;;;;;26.23;100.00;100667.97;4957670;29;20097;-72
2022/07/26 00:54:11;;;;;;;15.45;11.27;;;;;;;26.03;100.00;100668.75;4944081;29;20401;-72
2022/07/26 00:56:56;;;;;;;17.17;11.55;;;;;;;25.99;100.00;100659.25;4957440;29;20023;-72
2022/07/26 00:59:42;;;;;;;15.93;11.15;;;;;;;26.02;100.00;100666.19;4956787;29;20023;-72
2022/07/26 01:02:28;;;;;;;18.02;12.25;;;;;;;26.07;100.00;100666.66;4957761;29;20430;-72
2022/07/26 01:05:15;;;;;;;15.57;11.60;;;;;;;26.02;100.00;100658.16;4957006;28;20042;-72
2022/07/26 01:08:01;;;;;;;13.88;11.95;;;;;;;25.95;100.00;100659.63;4957519;29;20069;-72
2022/07/26 01:10:47;;;;;;;13.73;11.38;;;;;;;26.04;100.00;100666.94;4957073;29;20039;-72
2022/07/26 01:13:33;;;;;;;13.73;11.40;;;;;;;25.75;100.00;100660.34;4956564;28;20031;-73
2022/07/26 01:16:19;;;;;;;14.05;11.10;;;;;;;25.91;100.00;100650.06;4956712;28;20135;-73
2022/07/26 01:19:05;;;;;;;16.23;12.10;;;;;;;25.99;100.00;100653.03;4956600;29;20092;-72
2022/07/26 01:21:50;;;;;;;14.23;11.50;;;;;;;25.75;100.00;100645.13;4957176;29;20462;-72
2022/07/26 01:24:36;;;;;;;16.15;11.98;;;;;;;25.58;100.00;100645.63;4956948;28;20118;-72
2022/07/26 01:27:23;;;;;;;15.07;12.60;;;;;;;25.66;100.00;100640.50;4956551;29;20055;-73
2022/07/26 01:30:10;;;;;;;15.00;12.40;;;;;;;25.38;100.00;100634.78;4944161;29;20038;-73
2022/07/26 01:32:56;;;;;;;16.00;11.65;;;;;;;25.71;100.00;100637.41;4943295;29;20101;-72
2022/07/26 01:35:42;;;;;;;15.23;12.25;;;;;;;25.96;100.00;100643.38;4956710;29;20430;-72
2022/07/26 01:38:28;;;;;;;13.55;11.57;;;;;;;25.98;100.00;100645.94;4944392;29;20031;-72
2022/07/26 01:41:13;;;;;;;17.60;12.48;;;;;;;25.76;100.00;100636.06;4958823;29;20039;-73
2022/07/26 01:43:59;;;;;;;16.13;12.15;;;;;;;25.61;100.00;100642.72;4930327;29;20359;-72
2022/07/26 01:46:45;;;;;;;14.20;12.25;;;;;;;25.74;100.00;100642.53;4958160;29;20118;-71
2022/07/26 01:49:31;;;;;;;12.68;10.70;;;;;;;25.84;100.00;100633.63;4959949;28;20445;-72
2022/07/26 01:52:17;;;;;;;14.00;11.07;;;;;;;25.72;100.00;100631.09;4957984;29;20035;-72
2022/07/26 01:55:03;;;;;;;12.45;10.95;;;;;;;25.63;100.00;100624.63;4958809;28;20110;-71
2022/07/26 01:57:49;;;;;;;12.82;10.57;;;;;;;25.33;100.00;100631.63;4945432;29;20031;-72
2022/07/26 02:00:35;;;;;;;14.30;10.75;;;;;;;25.40;100.00;100627.47;4946261;29;20113;-72
2022/07/26 02:03:20;;;;;;;13.40;10.77;;;;;;;25.59;100.00;100631.22;4958275;28;20038;-72
2022/07/26 02:06:06;;;;;;;14.60;10.75;;;;;;;25.56;100.00;100630.63;4958836;29;20039;-71
2022/07/26 02:08:52;;;;;;;12.45;10.82;;;;;;;25.30;100.00;100629.16;4958533;29;20449;-72
2022/07/26 02:11:38;;;;;;;14.75;11.50;;;;;;;25.18;100.00;100630.09;4956669;29;20023;-73
2022/07/26 02:14:24;;;;;;;15.30;11.15;;;;;;;25.35;100.00;100633.19;4956094;28;20034;-73
2022/07/26 02:17:09;;;;;;;13.95;11.77;;;;;;;25.53;100.00;100629.06;4955980;29;20035;-72
2022/07/26 02:19:55;;;;;;;15.02;11.55;;;;;;;25.52;100.00;100621.13;4956876;29;20118;-72
2022/07/26 02:22:41;;;;;;;13.00;11.48;;;;;;;25.18;100.00;100624.75;4956322;29;20047;-73
2022/07/26 02:25:27;;;;;;;13.75;11.48;;;;;;;25.62;100.00;100632.81;4955811;28;20110;-73
2022/07/26 02:28:14;;;;;;;15.25;11.30;;;;;;;25.58;100.00;100631.34;4956118;28;20034;-72
2022/07/26 02:30:59;;;;;;;17.00;12.10;;;;;;;25.48;100.00;100636.59;4955942;29;20110;-72
2022/07/26 02:33:45;;;;;;;13.82;12.02;;;;;;;25.78;100.00;100636.81;4955968;28;20023;-73
2022/07/26 02:36:31;;;;;;;17.38;11.52;;;;;;;25.30;100.00;100631.84;4956601;29;20027;-72
2022/07/26 02:39:17;;;;;;;14.35;11.95;;;;;;;25.08;100.00;100637.19;4955938;29;20331;-73
2022/07/26 02:42:02;;;;;;;18.52;12.70;;;;;;;25.44;100.00;100639.66;4955931;29;20118;-73
2022/07/26 02:44:48;;;;;;;16.38;12.32;;;;;;;25.54;100.00;100638.81;4955955;28;20038;-73
2022/07/26 02:47:34;;;;;;;15.35;12.27;;;;;;;25.75;100.00;100642.44;4954530;29;20084;-73
2022/07/26 02:50:23;;;;;;;12.93;11.43;;;;;;;25.39;100.00;100640.03;4957382;28;20024;-72
2022/07/26 02:53:08;;;;;;;16.20;11.57;;;;;;;25.47;100.00;100648.31;4955451;29;20042;-72
2022/07/26 02:55:54;;;;;;;17.90;12.98;;;;;;;25.41;100.00;100650.63;4955188;29;20461;-73
2022/07/26 02:58:40;;;;;;;17.63;11.90;;;;;;;25.72;100.00;100642.66;4956073;29;20472;-73
2022/07/26 03:01:26;;;;;;;16.67;11.48;;;;;;;25.44;100.00;100645.88;4956188;29;20110;-73
2022/07/26 03:04:11;;;;;;;16.52;12.35;;;;;;;25.49;100.00;100634.78;4954809;28;20513;-73
2022/07/26 03:06:57;;;;;;;16.45;12.25;;;;;;;25.14;100.00;100634.88;4954993;29;20062;-72
2022/07/26 03:09:43;;;;;;;14.20;11.32;;;;;;;25.23;100.00;100635.97;4955657;29;20038;-72
2022/07/26 03:12:29;;;;;;;14.88;11.75;;;;;;;25.18;100.00;100639.00;4955978;29;20027;-73
2022/07/26 03:15:15;;;;;;;16.67;12.38;;;;;;;25.67;100.00;100638.66;4955204;28;20050;-73
2022/07/26 03:18:01;;;;;;;15.23;11.45;;;;;;;25.78;100.00;100646.69;4955770;29;20054;-72
2022/07/26 03:20:46;;;;;;;17.45;12.45;;;;;;;25.54;100.00;100649.53;4956763;28;20457;-72
2022/07/26 03:23:33;;;;;;;15.32;13.48;;;;;;;25.71;100.00;100654.38;4955791;28;20027;-72
2022/07/26 03:26:20;;;;;;;15.73;13.05;;;;;;;25.36;100.00;100651.00;4955532;29;20063;-72
2022/07/26 03:29:05;;;;;;;18.40;13.68;;;;;;;25.38;100.00;100641.00;4942360;29;20426;-72
2022/07/26 03:31:51;;;;;;;17.27;14.13;;;;;;;25.29;100.00;100651.59;4956065;29;20106;-72
2022/07/26 03:34:37;;;;;;;18.13;13.38;;;;;;;25.28;100.00;100652.59;4955668;28;20031;-72
2022/07/26 03:37:23;;;;;;;17.00;14.50;;;;;;;25.34;100.00;100646.72;4955613;29;20023;-73
2022/07/26 03:40:09;;;;;;;19.30;13.70;;;;;;;25.46;100.00;100648.44;4958542;28;20452;-72
2022/07/26 03:42:55;;;;;;;17.17;13.73;;;;;;;25.49;100.00;100648.19;4959375;29;20043;-72
2022/07/26 03:45:41;;;;;;;19.30;13.82;;;;;;;25.85;100.00;100658.66;4958142;29;20114;-72
2022/07/26 03:48:27;;;;;;;18.48;14.85;;;;;;;25.77;100.00;100664.66;4959201;29;20034;-73
2022/07/26 03:51:13;;;;;;;16.70;12.90;;;;;;;25.47;100.00;100658.22;4958703;29;20472;-73
2022/07/26 03:53:59;;;;;;;17.08;13.35;;;;;;;25.88;100.00;100658.41;4959240;28;20103;-73
2022/07/26 03:56:45;;;;;;;16.10;14.00;;;;;;;25.87;100.00;100662.03;4958542;29;20369;-72
2022/07/26 03:59:31;;;;;;;18.52;13.35;;;;;;;25.88;100.00;100656.56;4958317;29;20106;-73
2022/07/26 04:02:17;;;;;;;19.90;14.75;;;;;;;25.73;100.00;100656.97;4959569;29;20038;-72
2022/07/26 04:05:03;;;;;;;22.42;14.57;;;;;;;25.84;100.00;100651.56;4957751;28;20020;-72
2022/07/26 04:07:49;;;;;;;18.52;13.98;;;;;;;25.72;100.00;100649.88;4958271;29;20351;-72
2022/07/26 04:10:35;;;;;;;16.38;13.77;;;;;;;25.77;100.00;100647.69;4958275;29;20046;-72
2022/07/26 04:13:22;;;;;;;20.20;14.00;;;;;;;25.69;100.00;100644.75;4945468;28;20035;-73
2022/07/26 04:16:08;;;;;;;18.67;14.18;;;;;;;25.69;100.00;100647.44;4958718;29;20042;-73
2022/07/26 04:18:54;;;;;;;17.98;14.70;;;;;;;25.72;100.00;100650.72;4958106;29;20121;-73
2022/07/26 04:21:40;;;;;;;21.05;15.15;;;;;;;25.57;100.00;100643.06;4958052;29;20081;-71
2022/07/26 04:24:26;;;;;;;20.58;15.38;;;;;;;25.90;100.00;100640.31;4945130;29;20461;-72
2022/07/26 04:27:11;;;;;;;19.90;15.13;;;;;;;25.82;100.00;100650.84;4957691;29;20481;-72
2022/07/26 04:29:58;;;;;;;21.70;15.02;;;;;;;25.73;100.00;100647.09;4944503;29;20077;-72
2022/07/26 04:32:44;;;;;;;19.55;15.05;;;;;;;25.77;100.00;100648.53;4946116;28;20038;-73
2022/07/26 04:35:30;;;;;;;19.88;14.98;;;;;;;25.79;100.00;100643.88;4958240;28;20031;-73
2022/07/26 04:38:16;;;;;;;19.20;15.57;;;;;;;25.87;100.00;100648.63;4958318;29;20039;-74
2022/07/26 04:41:02;;;;;;;22.95;15.88;;;;;;;25.76;100.00;100645.97;4957632;29;20027;-73
2022/07/26 04:43:48;;;;;;;19.60;15.75;;;;;;;25.71;100.00;100645.47;4957972;28;20102;-73
2022/07/26 04:46:34;;;;;;;23.42;17.00;;;;;;;25.62;100.00;100638.16;4958317;29;20031;-75
2022/07/26 04:49:19;;;;;;;21.35;16.27;;;;;;;25.84;100.00;100644.34;4958216;28;20061;-73
2022/07/26 04:52:05;;;;;;;20.02;16.27;;;;;;;26.15;100.00;100643.59;4955897;29;20066;-73
2022/07/26 04:54:51;;;;;;;29.70;16.23;;;;;;;26.13;100.00;100640.19;4957127;28;20038;-72
2022/07/26 04:57:37;;;;;;;18.73;15.80;;;;;;;26.58;100.00;100640.88;4956926;29;20081;-74
2022/07/26 05:00:23;;;;;;;20.45;17.17;;;;;;;26.54;100.00;100640.25;4944050;29;20369;-73
2022/07/26 05:03:09;;;;;;;22.95;16.42;;;;;;;26.73;100.00;100636.88;4957499;29;20094;-73
2022/07/26 05:05:55;;;;;;;27.65;16.85;;;;;;;26.58;100.00;100633.69;4957347;29;20028;-74
2022/07/26 05:08:42;;;;;;;22.83;17.52;;;;;;;26.55;100.00;100624.97;4958068;29;20030;-73
2022/07/26 05:11:27;;;;;;;20.67;16.25;;;;;;;26.74;100.00;100627.84;4956934;29;20457;-73
2022/07/26 05:14:13;;;;;;;24.25;17.35;;;;;;;26.93;100.00;100634.19;4944183;29;20035;-73
2022/07/26 05:16:59;;;;;;;21.33;16.23;;;;;;;26.97;100.00;100627.53;4957550;29;20102;-74
2022/07/26 05:19:45;;;;;;;24.33;18.38;;;;;;;27.00;100.00;100639.88;4956849;29;20356;-73
2022/07/26 05:22:30;;;;;;;30.98;18.60;;;;;;;26.92;100.00;100647.75;4956654;29;20023;-72
2022/07/26 05:25:16;;;;;;;28.95;20.13;;;;;;;26.72;100.00;100643.25;4943121;29;20027;-73
2022/07/26 05:28:03;;;;;;;28.00;20.58;;;;;;;26.66;100.00;100644.63;4957391;29;20027;-73
2022/07/26 05:30:48;;;;;;;29.17;20.17;;;;;;;26.87;100.00;100640.09;4956626;29;20043;-72
2022/07/26 05:33:34;;;;;;;28.38;21.90;;;;;;;26.91;100.00;100643.38;4956556;28;20517;-73
2022/07/26 05:36:20;;;;;;;31.52;20.65;;;;;;;27.00;100.00;100643.44;4957829;29;20038;-72
2022/07/26 05:39:06;;;;;;;29.92;20.52;;;;;;;26.78;100.00;100648.97;4956717;29;20114;-74
2022/07/26 05:41:52;;;;;;;24.88;18.35;;;;;;;27.05;100.00;100643.03;4955463;29;20031;-73
2022/07/26 05:44:37;;;;;;;20.27;15.60;;;;;;;27.12;100.00;100650.44;4957061;28;20074;-73
2022/07/26 05:47:23;;;;;;;24.48;16.55;;;;;;;27.23;100.00;100638.75;4956816;29;20031;-72
2022/07/26 05:50:09;;;;;;;30.40;17.67;;;;;;;27.27;100.00;100646.44;4956529;28;20023;-72
2022/07/26 05:52:55;;;;;;;22.00;16.30;;;;;;;27.27;100.00;100648.28;4956754;29;20038;-74
2022/07/26 05:55:41;;;;;;;19.67;15.63;;;;;;;27.58;100.00;100656.19;4956917;29;20024;-72
2022/07/26 05:58:27;;;;;;;20.92;15.02;;;;;;;27.42;100.00;100647.81;4955757;29;20049;-73
2022/07/26 06:01:13;;;;;;;18.33;14.60;;;;;;;27.42;100.00;100642.41;4955685;28;20019;-72
2022/07/26 06:03:58;;;;;;;18.70;13.95;;;;;;;27.66;100.00;100647.47;4955654;28;20089;-73
2022/07/26 06:06:44;;;;;;;20.55;13.80;;;;;;;27.60;100.00;100647.97;4956546;29;20454;-74
2022/07/26 06:09:30;;;;;;;18.23;13.32;;;;;;;27.98;100.00;100641.88;4956254;29;20073;-73
2022/07/26 06:12:16;;;;;;;15.88;13.82;;;;;;;28.15;100.00;100642.06;4955654;29;20085;-73
2022/07/26 06:15:03;;;;;;;21.50;12.98;;;;;;;27.59;100.00;100638.22;4955983;28;20469;-73
2022/07/26 06:17:49;;;;;;;16.15;12.50;;;;;;;27.71;100.00;100631.72;4956019;29;20094;-73
2022/07/26 06:20:39;;;;;;;22.45;13.32;;;;;;;28.17;100.00;100625.75;4955052;29;20060;-74
2022/07/26 06:23:24;;;;;;;20.23;13.40;;;;;;;28.45;100.00;100631.19;4955271;28;20031;-74
2022/07/26 06:26:11;;;;;;;26.95;17.52;;;;;;;28.55;100.00;100625.78;4955364;29;20055;-72
2022/07/26 06:28:56;;;;;;;21.42;13.23;;;;;;;28.75;100.00;100620.22;4955799;29;20094;-74
2022/07/26 06:31:42;;;;;;;15.88;13.73;;;;;;;28.89;100.00;100618.94;4956058;29;20031;-73
2022/07/26 06:34:28;;;;;;;14.93;12.32;;;;;;;28.84;100.00;100621.19;4955270;28;20102;-73
2022/07/26 06:37:14;;;;;;;16.88;12.95;;;;;;;28.95;100.00;100621.91;4956154;29;20065;-73
2022/07/26 06:40:00;;;;;;;22.50;12.80;;;;;;;28.88;100.00;100620.78;4956323;29;20058;-73
2022/07/26 06:42:45;;;;;;;15.02;12.43;;;;;;;28.84;100.00;100624.75;4943046;29;20031;-73
2022/07/26 06:45:32;;;;;;;13.55;11.63;;;;;;;29.10;100.00;100620.47;4955190;28;20051;-74
2022/07/26 06:48:18;;;;;;;17.35;12.63;;;;;;;29.44;100.00;100631.53;4956235;29;20369;-72
2022/07/26 06:51:04;;;;;;;17.10;12.10;;;;;;;29.41;100.00;100635.41;4956261;29;20110;-72
2022/07/26 06:53:50;;;;;;;16.73;11.43;;;;;;;29.35;100.00;100630.59;4956265;28;20031;-74
2022/07/26 06:56:35;;;;;;;14.98;12.25;;;;;;;29.55;100.00;100632.22;4956200;29;20031;-74
2022/07/26 06:59:21;;;;;;;13.27;11.93;;;;;;;29.53;100.00;100630.69;4942576;29;20034;-74
2022/07/26 07:02:10;;;;;;;13.75;12.27;;;;;;;29.64;100.00;100633.19;4955816;29;20095;-74
2022/07/26 07:04:56;;;;;;;15.90;12.20;;;;;;;29.60;100.00;100624.53;4955319;28;20509;-75
2022/07/26 07:07:42;;;;;;;13.07;11.57;;;;;;;29.76;100.00;100622.03;4956222;29;20034;-74
2022/07/26 07:10:28;;;;;;;16.90;11.85;;;;;;;29.87;100.00;100626.38;4942175;29;20137;-73
2022/07/26 07:13:13;;;;;;;17.52;12.48;;;;;;;29.76;100.00;100632.84;4954540;28;20450;-73
2022/07/26 07:15:59;;;;;;;16.15;11.88;;;;;;;30.29;100.00;100631.09;4959227;29;20034;-75
2022/07/26 07:18:45;;;;;;;14.02;11.25;;;;;;;30.51;100.00;100630.63;4959897;29;20110;-74
2022/07/26 07:21:32;;;;;;;12.10;10.55;;;;;;;30.48;99.61;100622.81;4958527;29;20023;-75
2022/07/26 07:24:18;;;;;;;13.23;10.75;;;;;;;30.64;99.72;100625.66;4959075;28;20071;-74
2022/07/26 07:27:04;;;;;;;12.13;10.82;;;;;;;30.94;97.46;100633.34;4958842;29;20080;-75
2022/07/26 07:29:50;;;;;;;12.57;10.63;;;;;;;31.07;96.30;100635.66;4958676;29;20063;-75
2022/07/26 07:32:36;;;;;;;11.63;10.45;;;;;;;31.40;93.95;100632.16;4959054;29;20046;-75
2022/07/26 07:35:22;;;;;;;12.07;10.45;;;;;;;31.02;93.85;100632.59;4958512;28;20073;-74
2022/07/26 07:38:08;;;;;;;11.15;10.05;;;;;;;31.06;94.17;100632.09;4959450;29;20030;-75
2022/07/26 07:40:53;;;;;;;11.93;10.73;;;;;;;31.67;92.05;100634.66;4959171;29;20373;-74
2022/07/26 07:43:39;;;;;;;13.18;10.55;;;;;;;31.66;91.27;100634.81;4958308;28;20027;-74
2022/07/26 07:46:26;;;;;;;11.45;10.13;;;;;;;31.83;89.37;100633.88;4958377;29;20031;-74
2022/07/26 07:49:12;;;;;;;12.43;10.05;;;;;;;32.54;84.63;100632.38;4959152;29;20041;-73
2022/07/26 07:51:57;;;;;;;12.98;10.27;;;;;;;32.35;83.42;100633.53;4958519;29;20038;-74
2022/07/26 07:54:43;;;;;;;12.25;9.63;;;;;;;32.89;79.76;100627.47;4958608;28;20062;-75
2022/07/26 07:57:29;;;;;;;11.88;9.80;;;;;;;32.80;80.71;100633.88;4958796;29;20106;-74
2022/07/26 08:00:17;;;;;;;12.80;9.32;;;;;;;32.57;78.22;100627.44;4959220;29;20033;-74
2022/07/26 08:03:03;;;;;;;11.35;10.25;;;;;;;33.29;74.12;100624.66;4958642;29;20101;-74
2022/07/26 08:05:49;;;;;;;8.30;7.53;;;;;;;33.50;62.00;100621.38;4945469;29;20075;-75
2022/07/26 08:08:36;;;;;;;9.55;8.55;;;;;;;33.44;61.13;100624.81;4958902;29;20425;-75
2022/07/26 08:11:22;;;;;;;12.63;8.07;;;;;;;33.38;61.21;100626.34;4944914;29;20031;-75
2022/07/26 08:14:08;;;;;;;13.93;8.18;;;;;;;33.58;59.63;100618.63;4958929;28;20027;-75
2022/07/26 08:16:53;;;;;;;8.45;7.40;;;;;;;33.73;58.07;100617.72;4958839;29;20442;-74
2022/07/26 08:19:39;;;;;;;10.68;7.60;;;;;;;33.91;59.64;100614.78;4944719;29;20035;-75
2022/07/26 08:22:25;;;;;;;9.70;7.38;;;;;;;34.19;54.18;100614.06;4945112;29;20034;-75
2022/07/26 08:25:11;;;;;;;9.80;6.90;;;;;;;33.77;53.95;100612.78;4957370;28;20106;-74
2022/07/26 08:27:56;;;;;;;8.50;7.70;;;;;;;34.19;53.42;100610.53;4957405;29;20050;-74
2022/07/26 08:30:42;;;;;;;8.82;7.93;;;;;;;34.56;52.89;100605.16;4944805;29;20024;-76
2022/07/26 08:33:28;;;;;;;9.35;8.23;;;;;;;34.19;56.10;100607.81;4957464;28;20038;-75
2022/07/26 08:36:15;;;;;;;9.25;8.32;;;;;;;34.52;53.07;100603.84;4957780;29;20438;-74
2022/07/26 08:39:02;;;;;;;11.43;8.95;;;;;;;34.34;55.85;100595.13;4958121;29;20031;-73
2022/07/26 08:41:48;;;;;;;9.88;8.57;;;;;;;34.99;55.48;100590.78;4958122;29;20031;-73
2022/07/26 08:44:33;;;;;;;13.23;9.35;;;;;;;35.06;54.50;100600.78;4958191;28;20023;-74
2022/07/26 08:47:21;;;;;;;10.80;8.70;;;;;;;35.33;52.20;100585.69;4957823;29;20035;-74
2022/07/26 08:50:07;;;;;;;11.25;8.63;;;;;;;35.23;53.25;100587.81;4957778;29;20118;-74
2022/07/26 08:53:02;;;;;;;14.38;10.15;;;;;;;35.78;51.85;100592.78;4943699;29;20041;-74
2022/07/26 08:55:48;;;;;;;13.00;8.90;;;;;;;36.19;50.64;100591.19;4957781;29;20114;-74
2022/07/26 08:58:35;;;;;;;10.20;9.20;;;;;;;36.22;49.71;100591.66;4957287;29;20054;-74
2022/07/26 09:01:21;;;;;;;9.82;8.80;;;;;;;35.92;49.62;100592.75;4957719;29;20058;-75
2022/07/26 09:04:22;;;;;;;9.45;8.45;;;;;;;35.57;52.34;100579.06;4943304;29;20039;-74
2022/07/26 09:07:14;;;;;;;9.68;8.73;;;;;;;35.72;50.79;100591.66;4957908;29;20094;-74
2022/07/26 09:10:04;;;;;;;11.73;9.40;;;;;;;35.56;52.07;100580.13;4956470;29;20043;-74
2022/07/26 09:12:56;;;;;;;9.82;8.90;;;;;;;36.08;48.53;100584.31;4957458;29;20030;-74
2022/07/26 09:15:43;;;;;;;13.00;9.70;;;;;;;36.13;48.24;100575.56;4957103;29;20035;-74
2022/07/26 09:18:29;;;;;;;10.02;9.07;;;;;;;35.82;48.79;100567.69;4956661;29;20323;-74
2022/07/26 09:21:37;;;;;;;10.90;9.77;;;;;;;36.03;49.42;100577.78;4957974;29;20094;-74
2022/07/26 09:24:34;;;;;;;11.57;9.02;;;;;;;35.55;49.96;100565.63;4956654;28;20058;-74
2022/07/26 09:27:20;;;;;;;11.80;9.43;;;;;;;35.91;48.41;100569.25;4956506;29;20517;-74
2022/07/26 09:30:07;;;;;;;10.60;9.60;;;;;;;36.42;47.55;100561.81;4957393;29;20027;-74
2022/07/26 09:33:03;;;;;;;10.52;8.48;;;;;;;36.73;47.53;100568.63;4957119;29;20525;-74
2022/07/26 09:36:07;;;;;;;10.10;9.10;;;;;;;36.39;45.64;100564.97;4957139;28;20082;-74
2022/07/26 09:38:59;;;;;;;14.65;8.98;;;;;;;36.13;46.13;100562.78;4957282;29;20032;-77
2022/07/26 09:41:45;;;;;;;9.63;8.40;;;;;;;36.15;45.95;100557.97;4956571;29;20514;-74
2022/07/26 09:44:31;;;;;;;9.85;8.85;;;;;;;35.62;45.12;100550.22;4957097;28;20066;-74
2022/07/26 09:47:17;;;;;;;10.73;8.88;;;;;;;35.91;46.49;100549.31;4956849;29;20090;-74
2022/07/26 09:50:20;;;;;;;9.43;8.43;;;;;;;35.86;45.92;100546.31;4956882;29;20054;-74
2022/07/26 09:53:10;;;;;;;10.35;9.30;;;;;;;35.53;46.40;100537.72;4955682;29;20023;-74
2022/07/26 09:55:56;;;;;;;10.88;9.68;;;;;;;35.13;46.50;100535.50;4956656;29;20019;-74
2022/07/26 09:58:46;;;;;;;12.80;8.82;;;;;;;35.61;46.62;100534.91;4956296;29;20070;-74
2022/07/26 10:01:32;;;;;;;10.38;9.27;;;;;;;36.15;44.91;100536.13;4957145;29;20070;-74
2022/07/26 10:04:18;;;;;;;10.98;9.18;;;;;;;35.60;45.21;100538.66;4956228;28;20050;-74
2022/07/26 10:07:04;;;;;;;10.23;9.20;;;;;;;35.79;45.72;100532.59;4956416;29;20027;-75
2022/07/26 10:10:03;;;;;;;10.70;9.02;;;;;;;35.58;44.70;100535.28;4956765;29;20369;-75
2022/07/26 10:12:51;;;;;;;10.23;9.27;;;;;;;35.93;45.16;100526.28;4956207;29;20058;-74
2022/07/26 10:15:47;;;;;;;10.88;8.88;;;;;;;35.99;45.17;100525.47;4956090;29;20374;-74
2022/07/26 10:18:36;;;;;;;10.18;9.18;;;;;;;36.20;44.74;100525.47;4955935;29;20024;-74
2022/07/26 10:21:28;;;;;;;11.82;9.90;;;;;;;35.91;44.11;100524.78;4955336;29;20037;-74
2022/07/26 10:24:25;;;;;;;11.23;9.15;;;;;;;36.16;43.39;100526.06;4955865;28;20027;-75
2022/07/26 10:27:40;;;;;;;10.20;9.20;;;;;;;36.26;41.75;100526.59;4956244;29;20378;-75
2022/07/26 10:30:27;;;;;;;10.32;8.57;;;;;;;36.39;41.55;100510.38;4955917;29;20042;-74
2022/07/26 10:33:14;;;;;;;10.95;8.63;;;;;;;36.19;41.05;100510.13;4956571;28;20110;-75
2022/07/26 10:36:20;;;;;;;11.98;9.55;;;;;;;36.45;40.53;100502.22;4955976;29;20129;-74
2022/07/26 10:39:09;;;;;;;10.27;8.85;;;;;;;36.07;40.79;100499.97;4956188;29;20039;-74
2022/07/26 10:42:03;;;;;;;10.40;9.40;;;;;;;35.86;40.98;100500.81;4955686;29;20101;-74
2022/07/26 10:44:49;;;;;;;12.68;9.07;;;;;;;36.07;41.24;100494.50;4956181;28;20031;-74
2022/07/26 10:47:34;;;;;;;10.70;8.10;;;;;;;36.30;40.25;100492.41;4956526;28;20034;-73
2022/07/26 10:50:32;;;;;;;11.75;8.90;;;;;;;36.55;39.32;100493.66;4960017;29;20020;-74
2022/07/26 10:53:26;;;;;;;11.02;8.88;;;;;;;36.77;38.24;100496.19;4946615;28;20185;-74
2022/07/26 10:56:11;;;;;;;10.80;9.70;;;;;;;36.60;38.00;100488.47;4959905;29;20081;-75
2022/07/26 10:58:57;;;;;;;10.70;9.60;;;;;;;36.24;37.74;100485.84;4959915;29;20039;-75
2022/07/26 11:01:44;;;;;;;12.60;9.20;;;;;;;36.46;37.46;100478.47;4960571;29;20031;-74
2022/07/26 11:04:29;;;;;;;10.57;9.48;;;;;;;36.55;37.88;100477.28;4959202;28;20043;-73
2022/07/26 11:07:15;;;;;;;10.45;9.43;;;;;;;37.06;37.81;100482.25;4959912;29;20031;-74
2022/07/26 11:10:01;;;;;;;9.95;9.05;;;;;;;37.13;36.77;100480.41;4959416;29;20031;-75
2022/07/26 11:12:47;;;;;;;11.13;9.93;;;;;;;37.47;35.33;100479.50;4960539;29;20066;-75
2022/07/26 11:15:35;;;;;;;10.60;9.50;;;;;;;37.55;35.95;100480.16;4946553;29;20061;-74
2022/07/26 11:18:31;;;;;;;11.98;9.35;;;;;;;37.78;36.76;100483.44;4959934;29;20054;-74
2022/07/26 11:21:17;;;;;;;10.30;9.30;;;;;;;37.25;35.43;100470.59;4958553;29;20105;-74
2022/07/26 11:24:04;;;;;;;10.48;9.23;;;;;;;37.26;35.05;100466.84;4959075;28;20027;-75
2022/07/26 11:26:51;;;;;;;11.02;9.57;;;;;;;37.31;35.79;100463.47;4959085;29;20397;-74
2022/07/26 11:29:37;;;;;;;10.63;9.48;;;;;;;37.58;35.72;100466.09;4959462;29;20023;-74
2022/07/26 11:32:24;;;;;;;10.32;9.43;;;;;;;37.58;35.73;100462.50;4959049;29;20225;-74
2022/07/26 11:35:10;;;;;;;9.70;8.80;;;;;;;37.29;35.91;100455.47;4959088;28;20027;-74
2022/07/26 11:37:57;;;;;;;10.05;9.00;;;;;;;37.38;35.86;100451.53;4959415;29;20031;-73
2022/07/26 11:40:45;;;;;;;10.02;9.10;;;;;;;37.64;35.52;100451.59;4958733;29;20035;-75
2022/07/26 11:43:38;;;;;;;10.88;9.13;;;;;;;38.35;33.88;100433.56;4959602;28;20031;-75
2022/07/26 11:46:35;;;;;;;10.23;9.23;;;;;;;38.19;33.88;100437.59;4958958;29;20027;-73
2022/07/26 11:49:27;;;;;;;9.98;8.85;;;;;;;38.26;33.78;100434.84;4959656;29;20047;-74
2022/07/26 11:52:13;;;;;;;9.88;8.88;;;;;;;38.94;33.14;100434.34;4959001;29;20046;-74
2022/07/26 11:54:59;;;;;;;9.85;8.93;;;;;;;38.66;33.57;100428.28;4946076;29;20114;-74
2022/07/26 11:57:45;;;;;;;9.98;9.00;;;;;;;38.30;34.31;100425.16;4958995;29;20037;-74
2022/07/26 12:00:31;;;;;;;10.80;9.25;;;;;;;38.26;33.21;100426.63;4958849;28;20404;-74
2022/07/26 12:03:17;;;;;;;10.18;9.18;;;;;;;38.04;34.21;100417.81;4958605;28;20458;-74
2022/07/26 12:06:06;;;;;;;10.00;9.10;;;;;;;38.05;33.56;100414.00;4958780;29;20031;-74
2022/07/26 12:08:57;;;;;;;9.55;8.55;;;;;;;38.42;33.40;100407.88;4958332;29;20366;-75
2022/07/26 12:11:46;;;;;;;10.73;8.80;;;;;;;38.38;33.17;100403.88;4958177;29;20027;-74
2022/07/26 12:14:34;;;;;;;10.27;8.45;;;;;;;38.72;33.46;100408.22;4958276;28;20023;-74
2022/07/26 12:17:20;;;;;;;9.45;8.43;;;;;;;38.49;32.91;100408.72;4958009;29;20031;-75
2022/07/26 12:20:14;;;;;;;9.70;8.85;;;;;;;38.52;33.11;100402.81;4959139;29;20042;-74
2022/07/26 12:23:04;;;;;;;9.70;8.70;;;;;;;37.97;33.27;100395.03;4944566;29;20090;-74
2022/07/26 12:25:50;;;;;;;9.48;8.57;;;;;;;37.83;32.45;100396.09;4958237;29;20442;-75
2022/07/26 12:28:40;;;;;;;10.00;8.25;;;;;;;38.24;32.28;100385.78;4958090;29;20058;-74
2022/07/26 12:31:30;;;;;;;8.98;8.07;;;;;;;38.04;32.33;100384.97;4958173;29;20461;-75
2022/07/26 12:34:20;;;;;;;9.85;8.90;;;;;;;37.91;32.18;100368.53;4957830;28;20035;-75
2022/07/26 12:37:08;;;;;;;9.70;8.70;;;;;;;37.94;32.13;100373.59;4958484;29;20153;-75
2022/07/26 12:40:10;;;;;;;10.10;9.00;;;;;;;37.84;32.84;100378.63;4957245;29;20031;-74